sensor_id;sensor_type;location;lat;lon;timestamp;P1;durP1;ratioP1;P2;durP2;ratioP2
48751;SDS011;34544;48.836;9.174;2023-02-25T00:02:12;11.05;;;4.53;;
48751;SDS011;34544;48.836;9.174;2023-02-25T00:04:38;8.40;;;4.50;;
48751;SDS011;34544;48.836;9.174;2023-02-25T00:07:06;9.45;;;4.43;;
48751;SDS011;34544;48.836;9.174;2023-02-25T00:09:32;8.52;;;4.22;;
48751;SDS011;34544;48.836;9.174;2023-02-25T00:11:58;7.45;;;4.25;;
48751;SDS011;34544;48.836;9.174;2023-02-25T00:14:24;9.38;;;4.88;;
48751;SDS011;34544;48.836;9.174;2023-02-25T00:16:49;11.48;;;4.88;;
48751;SDS011;34544;48.836;9.174;2023-02-25T00:19:15;6.40;;;4.60;;
48751;SDS011;34544;48.836;9.174;2023-02-25T00:21:41;8.07;;;5.22;;
48751;SDS011;34544;48.836;9.174;2023-02-25T00:24:06;9.93;;;5.40;;
48751;SDS011;34544;48.836;9.174;2023-02-25T00:26:32;8.45;;;5.28;;
48751;SDS011;34544;48.836;9.174;2023-02-25T00:28:58;8.82;;;5.28;;
48751;SDS011;34544;48.836;9.174;2023-02-25T00:31:24;10.75;;;4.97;;
48751;SDS011;34544;48.836;9.174;2023-02-25T00:33:50;7.68;;;5.30;;
48751;SDS011;34544;48.836;9.174;2023-02-25T00:36:18;9.90;;;5.10;;
48751;SDS011;34544;48.836;9.174;2023-02-25T00:38:47;8.10;;;5.10;;
48751;SDS011;34544;48.836;9.174;2023-02-25T00:41:18;9.82;;;4.65;;
48751;SDS011;34544;48.836;9.174;2023-02-25T00:43:50;8.15;;;5.03;;
48751;SDS011;34544;48.836;9.174;2023-02-25T00:46:17;9.70;;;3.72;;
48751;SDS011;34544;48.836;9.174;2023-02-25T00:48:44;6.57;;;3.72;;
48751;SDS011;34544;48.836;9.174;2023-02-25T00:51:11;5.32;;;3.53;;
48751;SDS011;34544;48.836;9.174;2023-02-25T00:53:39;8.45;;;4.07;;
48751;SDS011;34544;48.836;9.174;2023-02-25T00:56:06;10.02;;;4.07;;
48751;SDS011;34544;48.836;9.174;2023-02-25T00:58:34;10.55;;;4.43;;
48751;SDS011;34544;48.836;9.174;2023-02-25T01:01:01;9.73;;;4.57;;
48751;SDS011;34544;48.836;9.174;2023-02-25T01:03:30;5.13;;;3.88;;
48751;SDS011;34544;48.836;9.174;2023-02-25T01:05:55;6.72;;;4.15;;
48751;SDS011;34544;48.836;9.174;2023-02-25T01:08:21;10.13;;;4.80;;
48751;SDS011;34544;48.836;9.174;2023-02-25T01:10:47;6.03;;;4.38;;
48751;SDS011;34544;48.836;9.174;2023-02-25T01:13:13;7.97;;;4.80;;
48751;SDS011;34544;48.836;9.174;2023-02-25T01:15:39;7.97;;;4.80;;
48751;SDS011;34544;48.836;9.174;2023-02-25T01:18:05;9.13;;;5.18;;
48751;SDS011;34544;48.836;9.174;2023-02-25T01:20:31;10.52;;;4.15;;
48751;SDS011;34544;48.836;9.174;2023-02-25T01:23:01;6.75;;;4.13;;
48751;SDS011;34544;48.836;9.174;2023-02-25T01:25:28;7.22;;;4.38;;
48751;SDS011;34544;48.836;9.174;2023-02-25T01:27:54;8.05;;;4.22;;
48751;SDS011;34544;48.836;9.174;2023-02-25T01:30:20;8.25;;;3.95;;
48751;SDS011;34544;48.836;9.174;2023-02-25T01:32:46;12.05;;;3.95;;
48751;SDS011;34544;48.836;9.174;2023-02-25T01:35:12;6.50;;;3.75;;
48751;SDS011;34544;48.836;9.174;2023-02-25T01:37:37;6.80;;;3.50;;
48751;SDS011;34544;48.836;9.174;2023-02-25T01:40:04;7.97;;;4.03;;
48751;SDS011;34544;48.836;9.174;2023-02-25T01:42:32;4.90;;;3.45;;
48751;SDS011;34544;48.836;9.174;2023-02-25T01:47:43;8.68;;;3.20;;
48751;SDS011;34544;48.836;9.174;2023-02-25T01:50:12;5.85;;;3.05;;
48751;SDS011;34544;48.836;9.174;2023-02-25T01:52:37;6.13;;;3.80;;
48751;SDS011;34544;48.836;9.174;2023-02-25T01:55:06;6.32;;;3.42;;
48751;SDS011;34544;48.836;9.174;2023-02-25T01:57:34;4.00;;;3.15;;
48751;SDS011;34544;48.836;9.174;2023-02-25T02:00:00;6.38;;;2.72;;
48751;SDS011;34544;48.836;9.174;2023-02-25T02:02:38;4.80;;;2.67;;
48751;SDS011;34544;48.836;9.174;2023-02-25T02:05:04;5.35;;;3.10;;
48751;SDS011;34544;48.836;9.174;2023-02-25T02:07:31;7.05;;;2.97;;
48751;SDS011;34544;48.836;9.174;2023-02-25T02:09:57;6.75;;;3.22;;
48751;SDS011;34544;48.836;9.174;2023-02-25T02:12:24;5.85;;;2.80;;
48751;SDS011;34544;48.836;9.174;2023-02-25T02:14:53;7.05;;;2.95;;
48751;SDS011;34544;48.836;9.174;2023-02-25T02:18:03;6.82;;;2.83;;
48751;SDS011;34544;48.836;9.174;2023-02-25T02:20:11;5.72;;;2.47;;
48751;SDS011;34544;48.836;9.174;2023-02-25T02:29:01;5.50;;;3.00;;
48751;SDS011;34544;48.836;9.174;2023-02-25T02:47:22;6.72;;;3.53;;
48751;SDS011;34544;48.836;9.174;2023-02-25T02:49:59;3.08;;;2.65;;
48751;SDS011;34544;48.836;9.174;2023-02-25T02:52:30;5.72;;;2.80;;
48751;SDS011;34544;48.836;9.174;2023-02-25T02:55:00;6.65;;;3.63;;
48751;SDS011;34544;48.836;9.174;2023-02-25T02:57:30;6.90;;;2.92;;
48751;SDS011;34544;48.836;9.174;2023-02-25T03:00:00;7.07;;;3.78;;
48751;SDS011;34544;48.836;9.174;2023-02-25T03:02:45;5.85;;;2.85;;
48751;SDS011;34544;48.836;9.174;2023-02-25T03:05:21;12.45;;;4.05;;
48751;SDS011;34544;48.836;9.174;2023-02-25T03:08:02;6.32;;;2.88;;
48751;SDS011;34544;48.836;9.174;2023-02-25T03:10:30;7.10;;;3.25;;
48751;SDS011;34544;48.836;9.174;2023-02-25T03:12:56;7.22;;;2.72;;
48751;SDS011;34544;48.836;9.174;2023-02-25T03:15:22;3.80;;;2.60;;
48751;SDS011;34544;48.836;9.174;2023-02-25T03:17:50;8.20;;;2.53;;
48751;SDS011;34544;48.836;9.174;2023-02-25T03:20:25;6.63;;;2.37;;
48751;SDS011;34544;48.836;9.174;2023-02-25T03:22:55;7.60;;;2.88;;
48751;SDS011;34544;48.836;9.174;2023-02-25T03:25:27;5.75;;;2.47;;
48751;SDS011;34544;48.836;9.174;2023-02-25T03:33:31;6.18;;;2.22;;
48751;SDS011;34544;48.836;9.174;2023-02-25T03:35:59;4.80;;;2.35;;
48751;SDS011;34544;48.836;9.174;2023-02-25T03:38:30;6.50;;;3.05;;
48751;SDS011;34544;48.836;9.174;2023-02-25T03:41:00;4.78;;;2.35;;
48751;SDS011;34544;48.836;9.174;2023-02-25T03:43:29;5.75;;;2.88;;
48751;SDS011;34544;48.836;9.174;2023-02-25T03:45:58;2.92;;;2.00;;
48751;SDS011;34544;48.836;9.174;2023-02-25T03:48:25;6.30;;;2.65;;
48751;SDS011;34544;48.836;9.174;2023-02-25T03:50:53;8.18;;;3.15;;
48751;SDS011;34544;48.836;9.174;2023-02-25T03:53:28;3.65;;;2.05;;
48751;SDS011;34544;48.836;9.174;2023-02-25T03:56:00;5.47;;;2.60;;
48751;SDS011;34544;48.836;9.174;2023-02-25T03:58:31;8.23;;;2.70;;
48751;SDS011;34544;48.836;9.174;2023-02-25T04:00:59;5.35;;;2.03;;
48751;SDS011;34544;48.836;9.174;2023-02-25T04:03:30;9.50;;;3.20;;
48751;SDS011;34544;48.836;9.174;2023-02-25T04:05:56;6.78;;;3.50;;
48751;SDS011;34544;48.836;9.174;2023-02-25T04:08:23;4.40;;;2.03;;
48751;SDS011;34544;48.836;9.174;2023-02-25T04:10:49;17.13;;;3.17;;
48751;SDS011;34544;48.836;9.174;2023-02-25T04:13:16;5.00;;;2.20;;
48751;SDS011;34544;48.836;9.174;2023-02-25T04:15:46;4.38;;;1.63;;
48751;SDS011;34544;48.836;9.174;2023-02-25T04:18:13;5.55;;;1.80;;
48751;SDS011;34544;48.836;9.174;2023-02-25T04:20:39;3.72;;;1.35;;
48751;SDS011;34544;48.836;9.174;2023-02-25T04:23:06;10.40;;;2.05;;
48751;SDS011;34544;48.836;9.174;2023-02-25T04:25:35;6.05;;;1.20;;
48751;SDS011;34544;48.836;9.174;2023-02-25T04:28:01;7.38;;;1.30;;
48751;SDS011;34544;48.836;9.174;2023-02-25T04:30:27;4.38;;;1.65;;
48751;SDS011;34544;48.836;9.174;2023-02-25T04:32:53;6.55;;;1.85;;
48751;SDS011;34544;48.836;9.174;2023-02-25T04:35:18;5.65;;;1.55;;
48751;SDS011;34544;48.836;9.174;2023-02-25T04:37:44;5.72;;;1.40;;
48751;SDS011;34544;48.836;9.174;2023-02-25T04:40:14;5.20;;;1.40;;
48751;SDS011;34544;48.836;9.174;2023-02-25T04:42:42;7.03;;;1.40;;
48751;SDS011;34544;48.836;9.174;2023-02-25T04:45:08;2.92;;;1.20;;
48751;SDS011;34544;48.836;9.174;2023-02-25T04:47:35;3.10;;;1.35;;
48751;SDS011;34544;48.836;9.174;2023-02-25T04:50:01;4.07;;;1.33;;
48751;SDS011;34544;48.836;9.174;2023-02-25T04:52:28;6.53;;;1.42;;
48751;SDS011;34544;48.836;9.174;2023-02-25T04:54:53;4.55;;;1.02;;
48751;SDS011;34544;48.836;9.174;2023-02-25T04:57:19;4.22;;;1.10;;
48751;SDS011;34544;48.836;9.174;2023-02-25T04:59:45;4.20;;;1.15;;
48751;SDS011;34544;48.836;9.174;2023-02-25T05:02:11;6.22;;;1.42;;
48751;SDS011;34544;48.836;9.174;2023-02-25T05:04:37;5.90;;;1.30;;
48751;SDS011;34544;48.836;9.174;2023-02-25T05:07:03;9.13;;;1.20;;
48751;SDS011;34544;48.836;9.174;2023-02-25T05:09:30;4.93;;;1.88;;
48751;SDS011;34544;48.836;9.174;2023-02-25T05:11:56;7.05;;;1.27;;
48751;SDS011;34544;48.836;9.174;2023-02-25T05:14:22;5.82;;;1.25;;
48751;SDS011;34544;48.836;9.174;2023-02-25T05:16:48;5.80;;;1.65;;
48751;SDS011;34544;48.836;9.174;2023-02-25T05:19:14;5.43;;;0.95;;
48751;SDS011;34544;48.836;9.174;2023-02-25T05:21:41;5.28;;;1.00;;
48751;SDS011;34544;48.836;9.174;2023-02-25T05:24:07;7.70;;;1.75;;
48751;SDS011;34544;48.836;9.174;2023-02-25T05:26:33;5.25;;;0.80;;
48751;SDS011;34544;48.836;9.174;2023-02-25T05:28:58;3.55;;;0.93;;
48751;SDS011;34544;48.836;9.174;2023-02-25T05:31:24;8.50;;;1.92;;
48751;SDS011;34544;48.836;9.174;2023-02-25T05:33:50;2.42;;;0.70;;
48751;SDS011;34544;48.836;9.174;2023-02-25T05:36:16;4.38;;;1.38;;
48751;SDS011;34544;48.836;9.174;2023-02-25T05:38:42;3.58;;;1.10;;
48751;SDS011;34544;48.836;9.174;2023-02-25T05:41:09;4.10;;;0.90;;
48751;SDS011;34544;48.836;9.174;2023-02-25T05:43:36;3.53;;;0.73;;
48751;SDS011;34544;48.836;9.174;2023-02-25T05:46:02;8.10;;;1.52;;
48751;SDS011;34544;48.836;9.174;2023-02-25T05:48:29;6.80;;;1.10;;
48751;SDS011;34544;48.836;9.174;2023-02-25T05:51:00;4.22;;;1.20;;
48751;SDS011;34544;48.836;9.174;2023-02-25T05:53:27;3.42;;;0.75;;
48751;SDS011;34544;48.836;9.174;2023-02-25T05:55:53;5.45;;;1.17;;
48751;SDS011;34544;48.836;9.174;2023-02-25T05:58:19;2.35;;;0.85;;
48751;SDS011;34544;48.836;9.174;2023-02-25T06:00:45;2.85;;;0.52;;
48751;SDS011;34544;48.836;9.174;2023-02-25T06:03:11;7.55;;;1.30;;
48751;SDS011;34544;48.836;9.174;2023-02-25T06:05:40;2.90;;;0.57;;
48751;SDS011;34544;48.836;9.174;2023-02-25T06:08:07;4.70;;;0.85;;
48751;SDS011;34544;48.836;9.174;2023-02-25T06:10:35;7.80;;;1.10;;
48751;SDS011;34544;48.836;9.174;2023-02-25T06:13:03;3.55;;;0.80;;
48751;SDS011;34544;48.836;9.174;2023-02-25T06:15:30;2.60;;;0.80;;
48751;SDS011;34544;48.836;9.174;2023-02-25T06:17:55;9.68;;;1.65;;
48751;SDS011;34544;48.836;9.174;2023-02-25T06:20:21;7.00;;;1.02;;
48751;SDS011;34544;48.836;9.174;2023-02-25T06:22:49;6.85;;;0.88;;
48751;SDS011;34544;48.836;9.174;2023-02-25T06:25:15;2.17;;;0.68;;
48751;SDS011;34544;48.836;9.174;2023-02-25T06:27:41;5.82;;;0.93;;
48751;SDS011;34544;48.836;9.174;2023-02-25T06:30:07;4.78;;;0.82;;
48751;SDS011;34544;48.836;9.174;2023-02-25T06:32:34;4.07;;;0.90;;
48751;SDS011;34544;48.836;9.174;2023-02-25T06:34:59;6.40;;;1.23;;
48751;SDS011;34544;48.836;9.174;2023-02-25T06:37:25;6.78;;;1.00;;
48751;SDS011;34544;48.836;9.174;2023-02-25T06:39:51;3.67;;;1.48;;
48751;SDS011;34544;48.836;9.174;2023-02-25T06:42:17;4.57;;;1.13;;
48751;SDS011;34544;48.836;9.174;2023-02-25T06:44:43;3.35;;;0.63;;
48751;SDS011;34544;48.836;9.174;2023-02-25T06:47:09;4.15;;;1.70;;
48751;SDS011;34544;48.836;9.174;2023-02-25T06:49:35;4.13;;;1.17;;
48751;SDS011;34544;48.836;9.174;2023-02-25T06:52:00;2.88;;;1.13;;
48751;SDS011;34544;48.836;9.174;2023-02-25T06:54:26;4.50;;;1.13;;
48751;SDS011;34544;48.836;9.174;2023-02-25T06:56:52;8.20;;;1.20;;
48751;SDS011;34544;48.836;9.174;2023-02-25T06:59:18;5.82;;;0.88;;
48751;SDS011;34544;48.836;9.174;2023-02-25T07:01:44;2.33;;;0.82;;
48751;SDS011;34544;48.836;9.174;2023-02-25T07:04:16;4.28;;;1.20;;
48751;SDS011;34544;48.836;9.174;2023-02-25T07:06:43;4.13;;;0.93;;
48751;SDS011;34544;48.836;9.174;2023-02-25T07:09:09;7.80;;;0.95;;
48751;SDS011;34544;48.836;9.174;2023-02-25T07:11:35;3.08;;;0.93;;
48751;SDS011;34544;48.836;9.174;2023-02-25T07:14:04;8.77;;;1.67;;
48751;SDS011;34544;48.836;9.174;2023-02-25T07:16:31;6.55;;;1.05;;
48751;SDS011;34544;48.836;9.174;2023-02-25T07:18:58;3.92;;;0.90;;
48751;SDS011;34544;48.836;9.174;2023-02-25T07:21:26;5.20;;;1.20;;
48751;SDS011;34544;48.836;9.174;2023-02-25T07:23:53;3.10;;;1.15;;
48751;SDS011;34544;48.836;9.174;2023-02-25T07:26:19;3.20;;;1.10;;
48751;SDS011;34544;48.836;9.174;2023-02-25T07:28:44;8.05;;;1.05;;
48751;SDS011;34544;48.836;9.174;2023-02-25T07:31:16;3.20;;;1.00;;
48751;SDS011;34544;48.836;9.174;2023-02-25T07:33:43;3.85;;;1.20;;
48751;SDS011;34544;48.836;9.174;2023-02-25T07:36:09;3.67;;;1.30;;
48751;SDS011;34544;48.836;9.174;2023-02-25T07:38:35;5.78;;;1.60;;
48751;SDS011;34544;48.836;9.174;2023-02-25T07:41:08;7.03;;;1.50;;
48751;SDS011;34544;48.836;9.174;2023-02-25T07:43:35;5.07;;;0.95;;
48751;SDS011;34544;48.836;9.174;2023-02-25T07:46:02;4.70;;;1.65;;
48751;SDS011;34544;48.836;9.174;2023-02-25T07:48:28;5.78;;;0.60;;
48751;SDS011;34544;48.836;9.174;2023-02-25T07:50:54;6.43;;;0.98;;
48751;SDS011;34544;48.836;9.174;2023-02-25T07:53:20;3.80;;;0.82;;
48751;SDS011;34544;48.836;9.174;2023-02-25T07:55:46;3.03;;;0.82;;
48751;SDS011;34544;48.836;9.174;2023-02-25T07:58:13;2.70;;;0.75;;
48751;SDS011;34544;48.836;9.174;2023-02-25T08:00:39;4.13;;;1.45;;
48751;SDS011;34544;48.836;9.174;2023-02-25T08:03:05;2.45;;;0.70;;
48751;SDS011;34544;48.836;9.174;2023-02-25T08:05:35;6.53;;;1.13;;
48751;SDS011;34544;48.836;9.174;2023-02-25T08:08:03;8.50;;;1.30;;
48751;SDS011;34544;48.836;9.174;2023-02-25T08:10:30;5.75;;;1.30;;
48751;SDS011;34544;48.836;9.174;2023-02-25T08:12:55;3.90;;;1.00;;
48751;SDS011;34544;48.836;9.174;2023-02-25T08:15:21;3.70;;;1.38;;
48751;SDS011;34544;48.836;9.174;2023-02-25T08:17:47;2.72;;;0.93;;
48751;SDS011;34544;48.836;9.174;2023-02-25T08:20:17;5.95;;;1.10;;
48751;SDS011;34544;48.836;9.174;2023-02-25T08:22:43;8.30;;;1.20;;
48751;SDS011;34544;48.836;9.174;2023-02-25T08:25:08;4.57;;;0.90;;
48751;SDS011;34544;48.836;9.174;2023-02-25T08:27:34;3.97;;;1.42;;
48751;SDS011;34544;48.836;9.174;2023-02-25T08:30:01;2.90;;;0.80;;
48751;SDS011;34544;48.836;9.174;2023-02-25T08:32:27;4.53;;;0.98;;
48751;SDS011;34544;48.836;9.174;2023-02-25T08:34:53;6.47;;;1.02;;
48751;SDS011;34544;48.836;9.174;2023-02-25T08:37:20;4.72;;;1.23;;
48751;SDS011;34544;48.836;9.174;2023-02-25T08:39:47;6.03;;;1.25;;
48751;SDS011;34544;48.836;9.174;2023-02-25T08:42:13;5.25;;;0.80;;
48751;SDS011;34544;48.836;9.174;2023-02-25T08:44:43;9.55;;;2.53;;
48751;SDS011;34544;48.836;9.174;2023-02-25T08:47:09;3.15;;;1.25;;
48751;SDS011;34544;48.836;9.174;2023-02-25T08:49:34;2.85;;;1.15;;
48751;SDS011;34544;48.836;9.174;2023-02-25T08:52:00;3.10;;;1.00;;
48751;SDS011;34544;48.836;9.174;2023-02-25T08:54:26;3.88;;;1.30;;
48751;SDS011;34544;48.836;9.174;2023-02-25T08:56:51;5.43;;;0.93;;
48751;SDS011;34544;48.836;9.174;2023-02-25T08:59:19;2.63;;;1.17;;
48751;SDS011;34544;48.836;9.174;2023-02-25T09:01:45;7.88;;;0.90;;
48751;SDS011;34544;48.836;9.174;2023-02-25T09:04:13;2.08;;;0.85;;
48751;SDS011;34544;48.836;9.174;2023-02-25T09:06:41;3.42;;;1.25;;
48751;SDS011;34544;48.836;9.174;2023-02-25T09:09:06;1.20;;;0.77;;
48751;SDS011;34544;48.836;9.174;2023-02-25T09:11:32;5.15;;;1.13;;
48751;SDS011;34544;48.836;9.174;2023-02-25T09:13:58;4.78;;;0.90;;
48751;SDS011;34544;48.836;9.174;2023-02-25T09:16:26;6.90;;;1.23;;
48751;SDS011;34544;48.836;9.174;2023-02-25T09:18:52;1.48;;;0.85;;
48751;SDS011;34544;48.836;9.174;2023-02-25T09:21:18;5.25;;;1.27;;
48751;SDS011;34544;48.836;9.174;2023-02-25T09:23:44;5.22;;;1.05;;
48751;SDS011;34544;48.836;9.174;2023-02-25T09:26:11;5.30;;;1.00;;
48751;SDS011;34544;48.836;9.174;2023-02-25T09:28:37;3.92;;;0.82;;
48751;SDS011;34544;48.836;9.174;2023-02-25T09:31:03;2.33;;;0.80;;
48751;SDS011;34544;48.836;9.174;2023-02-25T09:33:30;3.90;;;1.33;;
48751;SDS011;34544;48.836;9.174;2023-02-25T09:36:06;2.55;;;1.35;;
48751;SDS011;34544;48.836;9.174;2023-02-25T09:38:34;3.72;;;0.65;;
48751;SDS011;34544;48.836;9.174;2023-02-25T09:41:00;3.90;;;0.95;;
48751;SDS011;34544;48.836;9.174;2023-02-25T09:43:35;3.80;;;1.17;;
48751;SDS011;34544;48.836;9.174;2023-02-25T09:46:07;4.20;;;0.65;;
48751;SDS011;34544;48.836;9.174;2023-02-25T09:48:39;2.60;;;0.93;;
48751;SDS011;34544;48.836;9.174;2023-02-25T09:51:29;3.67;;;1.13;;
48751;SDS011;34544;48.836;9.174;2023-02-25T09:54:12;3.00;;;0.55;;
48751;SDS011;34544;48.836;9.174;2023-02-25T09:56:42;5.22;;;0.65;;
48751;SDS011;34544;48.836;9.174;2023-02-25T09:59:10;2.05;;;0.52;;
48751;SDS011;34544;48.836;9.174;2023-02-25T10:04:50;1.35;;;0.65;;
48751;SDS011;34544;48.836;9.174;2023-02-25T10:07:33;1.38;;;0.32;;
48751;SDS011;34544;48.836;9.174;2023-02-25T10:10:05;1.02;;;0.30;;
48751;SDS011;34544;48.836;9.174;2023-02-25T10:13:03;4.50;;;0.55;;
48751;SDS011;34544;48.836;9.174;2023-02-25T10:22:05;0.63;;;0.30;;
48751;SDS011;34544;48.836;9.174;2023-02-25T10:27:14;0.63;;;0.40;;
48751;SDS011;34544;48.836;9.174;2023-02-25T10:29:46;2.67;;;0.88;;
48751;SDS011;34544;48.836;9.174;2023-02-25T10:32:16;0.45;;;0.40;;
48751;SDS011;34544;48.836;9.174;2023-02-25T10:34:44;6.32;;;0.70;;
48751;SDS011;34544;48.836;9.174;2023-02-25T10:40:06;1.33;;;0.40;;
48751;SDS011;34544;48.836;9.174;2023-02-25T10:42:35;1.98;;;0.90;;
48751;SDS011;34544;48.836;9.174;2023-02-25T10:45:06;0.38;;;0.28;;
48751;SDS011;34544;48.836;9.174;2023-02-25T10:47:36;2.42;;;0.40;;
48751;SDS011;34544;48.836;9.174;2023-02-25T10:52:51;2.42;;;0.57;;
48751;SDS011;34544;48.836;9.174;2023-02-25T10:58:24;4.78;;;0.77;;
48751;SDS011;34544;48.836;9.174;2023-02-25T11:01:19;2.42;;;0.77;;
48751;SDS011;34544;48.836;9.174;2023-02-25T11:06:27;4.75;;;0.98;;
48751;SDS011;34544;48.836;9.174;2023-02-25T11:08:55;2.17;;;0.68;;
48751;SDS011;34544;48.836;9.174;2023-02-25T11:13:59;3.38;;;1.25;;
48751;SDS011;34544;48.836;9.174;2023-02-25T11:16:26;3.80;;;1.10;;
48751;SDS011;34544;48.836;9.174;2023-02-25T11:18:54;5.00;;;1.13;;
48751;SDS011;34544;48.836;9.174;2023-02-25T11:21:42;4.72;;;1.33;;
48751;SDS011;34544;48.836;9.174;2023-02-25T11:24:17;2.45;;;0.70;;
48751;SDS011;34544;48.836;9.174;2023-02-25T11:26:49;3.38;;;0.77;;
48751;SDS011;34544;48.836;9.174;2023-02-25T11:29:20;2.00;;;0.90;;
48751;SDS011;34544;48.836;9.174;2023-02-25T11:31:53;2.47;;;0.85;;
48751;SDS011;34544;48.836;9.174;2023-02-25T11:34:25;3.10;;;0.80;;
48751;SDS011;34544;48.836;9.174;2023-02-25T11:36:54;4.40;;;0.98;;
48751;SDS011;34544;48.836;9.174;2023-02-25T11:41:52;4.13;;;1.13;;
48751;SDS011;34544;48.836;9.174;2023-02-25T11:47:13;1.70;;;0.77;;
48751;SDS011;34544;48.836;9.174;2023-02-25T12:03:23;2.90;;;1.00;;
48751;SDS011;34544;48.836;9.174;2023-02-25T12:08:43;6.57;;;1.27;;
48751;SDS011;34544;48.836;9.174;2023-02-25T12:11:44;6.63;;;1.15;;
48751;SDS011;34544;48.836;9.174;2023-02-25T12:15:03;2.92;;;1.15;;
48751;SDS011;34544;48.836;9.174;2023-02-25T12:17:40;3.88;;;1.08;;
48751;SDS011;34544;48.836;9.174;2023-02-25T12:26:10;1.73;;;0.95;;
48751;SDS011;34544;48.836;9.174;2023-02-25T12:28:57;5.75;;;1.80;;
48751;SDS011;34544;48.836;9.174;2023-02-25T12:32:14;6.95;;;2.08;;
48751;SDS011;34544;48.836;9.174;2023-02-25T12:34:53;2.53;;;1.42;;
48751;SDS011;34544;48.836;9.174;2023-02-25T12:43:01;2.30;;;1.25;;
48751;SDS011;34544;48.836;9.174;2023-02-25T13:08:26;8.35;;;1.20;;
48751;SDS011;34544;48.836;9.174;2023-02-25T13:11:14;1.85;;;0.88;;
48751;SDS011;34544;48.836;9.174;2023-02-25T13:19:39;6.65;;;2.55;;
48751;SDS011;34544;48.836;9.174;2023-02-25T13:25:12;11.52;;;3.53;;
48751;SDS011;34544;48.836;9.174;2023-02-25T13:42:07;3.75;;;1.25;;
48751;SDS011;34544;48.836;9.174;2023-02-25T13:44:50;5.25;;;0.95;;
48751;SDS011;34544;48.836;9.174;2023-02-25T14:10:45;4.35;;;1.40;;
48751;SDS011;34544;48.836;9.174;2023-02-25T14:24:20;6.50;;;1.20;;
48751;SDS011;34544;48.836;9.174;2023-02-25T14:27:19;2.88;;;1.33;;
48751;SDS011;34544;48.836;9.174;2023-02-25T14:35:19;6.60;;;1.00;;
48751;SDS011;34544;48.836;9.174;2023-02-25T14:38:12;4.47;;;1.50;;
48751;SDS011;34544;48.836;9.174;2023-02-25T14:43:32;4.28;;;1.23;;
48751;SDS011;34544;48.836;9.174;2023-02-25T14:48:56;7.55;;;1.60;;
48751;SDS011;34544;48.836;9.174;2023-02-25T15:03:47;6.18;;;1.48;;
48751;SDS011;34544;48.836;9.174;2023-02-25T15:08:55;5.63;;;2.22;;
48751;SDS011;34544;48.836;9.174;2023-02-25T15:22:54;3.42;;;1.35;;
48751;SDS011;34544;48.836;9.174;2023-02-25T15:25:35;6.80;;;1.30;;
48751;SDS011;34544;48.836;9.174;2023-02-25T15:35:53;6.32;;;1.67;;
48751;SDS011;34544;48.836;9.174;2023-02-25T15:38:37;1.65;;;1.10;;
48751;SDS011;34544;48.836;9.174;2023-02-25T15:49:03;5.07;;;1.13;;
48751;SDS011;34544;48.836;9.174;2023-02-25T15:51:40;12.98;;;2.40;;
48751;SDS011;34544;48.836;9.174;2023-02-25T15:54:09;4.40;;;1.55;;
48751;SDS011;34544;48.836;9.174;2023-02-25T15:56:53;3.78;;;1.70;;
48751;SDS011;34544;48.836;9.174;2023-02-25T16:04:52;8.25;;;2.25;;
48751;SDS011;34544;48.836;9.174;2023-02-25T16:07:20;4.45;;;1.30;;
48751;SDS011;34544;48.836;9.174;2023-02-25T16:09:54;6.20;;;1.63;;
48751;SDS011;34544;48.836;9.174;2023-02-25T16:12:23;6.95;;;1.95;;
48751;SDS011;34544;48.836;9.174;2023-02-25T16:14:49;4.93;;;1.98;;
48751;SDS011;34544;48.836;9.174;2023-02-25T16:17:22;7.22;;;2.30;;
48751;SDS011;34544;48.836;9.174;2023-02-25T16:19:55;7.43;;;2.72;;
48751;SDS011;34544;48.836;9.174;2023-02-25T16:22:25;6.63;;;3.85;;
48751;SDS011;34544;48.836;9.174;2023-02-25T16:24:53;8.82;;;2.95;;
48751;SDS011;34544;48.836;9.174;2023-02-25T16:30:12;10.27;;;3.40;;
48751;SDS011;34544;48.836;9.174;2023-02-25T16:36:23;6.07;;;2.28;;
48751;SDS011;34544;48.836;9.174;2023-02-25T16:38:59;8.77;;;2.53;;
48751;SDS011;34544;48.836;9.174;2023-02-25T16:41:34;6.20;;;1.73;;
48751;SDS011;34544;48.836;9.174;2023-02-25T16:44:00;5.53;;;3.20;;
48751;SDS011;34544;48.836;9.174;2023-02-25T16:46:31;5.88;;;1.85;;
48751;SDS011;34544;48.836;9.174;2023-02-25T16:51:31;6.45;;;2.20;;
48751;SDS011;34544;48.836;9.174;2023-02-25T16:54:04;5.82;;;2.33;;
48751;SDS011;34544;48.836;9.174;2023-02-25T16:56:37;4.88;;;1.75;;
48751;SDS011;34544;48.836;9.174;2023-02-25T17:01:34;8.15;;;2.60;;
48751;SDS011;34544;48.836;9.174;2023-02-25T17:04:09;10.60;;;2.58;;
48751;SDS011;34544;48.836;9.174;2023-02-25T17:09:32;7.35;;;2.50;;
48751;SDS011;34544;48.836;9.174;2023-02-25T17:11:59;5.47;;;2.88;;
48751;SDS011;34544;48.836;9.174;2023-02-25T17:14:26;4.85;;;2.28;;
48751;SDS011;34544;48.836;9.174;2023-02-25T17:16:53;6.25;;;2.17;;
48751;SDS011;34544;48.836;9.174;2023-02-25T17:19:19;10.57;;;2.78;;
48751;SDS011;34544;48.836;9.174;2023-02-25T17:21:52;4.75;;;2.40;;
48751;SDS011;34544;48.836;9.174;2023-02-25T17:24:21;8.70;;;2.42;;
48751;SDS011;34544;48.836;9.174;2023-02-25T17:26:53;12.27;;;2.50;;
48751;SDS011;34544;48.836;9.174;2023-02-25T17:29:19;11.10;;;4.63;;
48751;SDS011;34544;48.836;9.174;2023-02-25T17:31:47;4.35;;;1.35;;
48751;SDS011;34544;48.836;9.174;2023-02-25T17:34:13;6.03;;;0.90;;
48751;SDS011;34544;48.836;9.174;2023-02-25T17:36:42;3.80;;;1.17;;
48751;SDS011;34544;48.836;9.174;2023-02-25T17:39:12;3.10;;;1.23;;
48751;SDS011;34544;48.836;9.174;2023-02-25T17:41:40;4.53;;;1.35;;
48751;SDS011;34544;48.836;9.174;2023-02-25T17:44:10;2.42;;;1.48;;
48751;SDS011;34544;48.836;9.174;2023-02-25T17:46:37;4.18;;;1.50;;
48751;SDS011;34544;48.836;9.174;2023-02-25T17:49:18;3.40;;;1.63;;
48751;SDS011;34544;48.836;9.174;2023-02-25T17:51:53;3.33;;;1.60;;
48751;SDS011;34544;48.836;9.174;2023-02-25T17:54:23;3.10;;;1.38;;
48751;SDS011;34544;48.836;9.174;2023-02-25T17:56:56;4.18;;;2.13;;
48751;SDS011;34544;48.836;9.174;2023-02-25T17:59:42;3.10;;;2.20;;
48751;SDS011;34544;48.836;9.174;2023-02-25T18:02:31;3.67;;;2.13;;
48751;SDS011;34544;48.836;9.174;2023-02-25T18:07:44;2.22;;;1.70;;
48751;SDS011;34544;48.836;9.174;2023-02-25T18:12:51;8.18;;;4.10;;
48751;SDS011;34544;48.836;9.174;2023-02-25T18:15:23;5.90;;;3.75;;
48751;SDS011;34544;48.836;9.174;2023-02-25T18:17:55;7.65;;;3.28;;
48751;SDS011;34544;48.836;9.174;2023-02-25T18:20:32;5.57;;;3.27;;
48751;SDS011;34544;48.836;9.174;2023-02-25T18:25:38;2.80;;;1.98;;
48751;SDS011;34544;48.836;9.174;2023-02-25T18:28:13;3.67;;;1.75;;
48751;SDS011;34544;48.836;9.174;2023-02-25T18:30:41;3.95;;;2.17;;
48751;SDS011;34544;48.836;9.174;2023-02-25T18:33:08;8.40;;;1.75;;
48751;SDS011;34544;48.836;9.174;2023-02-25T18:35:37;2.50;;;1.80;;
48751;SDS011;34544;48.836;9.174;2023-02-25T18:38:06;3.53;;;2.08;;
48751;SDS011;34544;48.836;9.174;2023-02-25T18:40:38;5.07;;;2.13;;
48751;SDS011;34544;48.836;9.174;2023-02-25T18:43:05;3.22;;;2.45;;
48751;SDS011;34544;48.836;9.174;2023-02-25T18:45:32;4.53;;;2.00;;
48751;SDS011;34544;48.836;9.174;2023-02-25T18:47:58;4.57;;;2.45;;
48751;SDS011;34544;48.836;9.174;2023-02-25T18:50:25;9.63;;;5.28;;
48751;SDS011;34544;48.836;9.174;2023-02-25T18:52:54;6.90;;;3.38;;
48751;SDS011;34544;48.836;9.174;2023-02-25T18:55:21;6.80;;;3.47;;
48751;SDS011;34544;48.836;9.174;2023-02-25T18:57:51;7.30;;;4.00;;
48751;SDS011;34544;48.836;9.174;2023-02-25T19:00:18;9.40;;;4.45;;
48751;SDS011;34544;48.836;9.174;2023-02-25T19:05:31;13.45;;;4.00;;
48751;SDS011;34544;48.836;9.174;2023-02-25T19:07:58;10.73;;;4.88;;
48751;SDS011;34544;48.836;9.174;2023-02-25T19:10:27;9.63;;;4.47;;
48751;SDS011;34544;48.836;9.174;2023-02-25T19:13:05;5.63;;;3.25;;
48751;SDS011;34544;48.836;9.174;2023-02-25T19:15:35;9.10;;;4.22;;
48751;SDS011;34544;48.836;9.174;2023-02-25T19:18:01;8.30;;;4.18;;